Time;durP1;ratioP1;P1;durP2;ratioP2;P2;SDS_P1;SDS_P2;PMS_P1;PMS_P2;Temp;Humidity;BMP_temperature;BMP_pressure;BME280_temperature;BME280_humidity;BME280_pressure;Samples;Min_cycle;Max_cycle;Signal;HPM_P1;HPM_P2
2021/11/23 00:00:44;;;;;;;;;;;0.40;99.90;;;;;;5054240;28;20380;-76
2021/11/23 00:03:10;;;;;;;;;;;0.30;99.90;;;;;;5054682;28;19916;-75
2021/11/23 00:05:36;;;;;;;;;;;0.30;99.90;;;;;;5054564;28;19909;-76
2021/11/23 00:08:02;;;;;;;;;;;0.20;99.90;;;;;;5054600;28;19939;-76
2021/11/23 00:10:28;;;;;;;;;;;0.10;99.90;;;;;;5057079;28;19960;-76
2021/11/23 00:12:53;;;;;;;;;;;0.00;99.90;;;;;;5061009;28;20006;-77
2021/11/23 00:15:19;;;;;;;;;;;-0.10;99.90;;;;;;5054343;28;19913;-77
2021/11/23 00:17:44;;;;;;;;;;;-0.10;99.90;;;;;;5054402;28;20381;-77
2021/11/23 00:20:10;;;;;;;;;;;-0.20;99.90;;;;;;5053832;28;19909;-77
2021/11/23 00:22:35;;;;;;;;;;;-0.30;99.90;;;;;;5052901;28;20285;-77
2021/11/23 00:25:02;;;;;;;;;;;-0.30;99.90;;;;;;5054514;28;19913;-77
2021/11/23 00:27:27;;;;;;;;;;;-0.30;99.90;;;;;;5054372;28;19909;-77
2021/11/23 00:29:53;;;;;;;;;;;-0.40;99.90;;;;;;5053710;28;19909;-76
2021/11/23 00:32:19;;;;;;;;;;;-0.50;99.90;;;;;;5054090;28;19970;-76
2021/11/23 00:34:44;;;;;;;;;;;-0.50;99.90;;;;;;5053878;28;20393;-75
2021/11/23 00:37:10;;;;;;;;;;;-0.60;99.90;;;;;;5054028;28;19909;-77
2021/11/23 00:39:36;;;;;;;;;;;-0.50;99.90;;;;;;5063140;28;20314;-76
2021/11/23 00:42:01;;;;;;;;;;;-0.60;99.90;;;;;;5060678;28;19912;-76
2021/11/23 00:44:27;;;;;;;;;;;-0.60;99.90;;;;;;5052712;28;19909;-76
2021/11/23 00:46:52;;;;;;;;;;;-0.60;99.90;;;;;;5053780;28;20384;-77
2021/11/23 00:49:18;;;;;;;;;;;-0.60;99.90;;;;;;5053623;28;19948;-76
2021/11/23 00:51:44;;;;;;;;;;;-0.80;99.90;;;;;;5053460;28;20335;-76
2021/11/23 00:54:10;;;;;;;;;;;-0.80;99.90;;;;;;5053605;28;19912;-77
2021/11/23 00:56:35;;;;;;;;;;;-0.90;99.90;;;;;;5053574;28;19909;-76
2021/11/23 00:59:01;;;;;;;;;;;-1.00;99.90;;;;;;5053622;28;19915;-77
2021/11/23 01:01:26;;;;;;;;;;;-0.80;99.90;;;;;;5053160;28;19916;-77
2021/11/23 01:03:52;;;;;;;;;;;-0.90;99.90;;;;;;5053464;28;19916;-76
2021/11/23 01:06:18;;;;;;;;;;;-0.90;99.90;;;;;;5053305;28;20377;-77
2021/11/23 01:08:44;;;;;;;;;;;-0.90;99.90;;;;;;5054878;28;19932;-77
2021/11/23 01:11:11;;;;;;;;;;;-1.00;99.90;;;;;;5064034;28;19917;-76
2021/11/23 01:13:37;;;;;;;;;;;-1.10;99.90;;;;;;5053268;28;19923;-77
2021/11/23 01:16:03;;;;;;;;;;;-1.00;99.90;;;;;;5053326;28;19909;-77
2021/11/23 01:18:31;;;;;;;;;;;-1.00;99.90;;;;;;5053132;28;19962;-77
2021/11/23 01:20:57;;;;;;;;;;;-0.90;99.90;;;;;;5052708;28;19909;-76
2021/11/23 01:23:22;;;;;;;;;;;-1.00;99.90;;;;;;5053148;28;19955;-76
2021/11/23 01:25:48;;;;;;;;;;;-1.00;99.90;;;;;;5053135;28;19908;-74
2021/11/23 01:28:14;;;;;;;;;;;-1.00;99.90;;;;;;5053044;28;20312;-77
2021/11/23 01:30:40;;;;;;;;;;;-0.90;99.90;;;;;;5052579;28;20024;-76
2021/11/23 01:33:05;;;;;;;;;;;-1.00;99.90;;;;;;5052872;28;20095;-76
2021/11/23 01:35:31;;;;;;;;;;;-1.00;99.90;;;;;;5052912;28;19917;-77
2021/11/23 01:37:56;;;;;;;;;;;-1.10;99.90;;;;;;5052846;28;20285;-76
2021/11/23 01:40:22;;;;;;;;;;;-1.10;99.90;;;;;;5055496;28;19920;-77
2021/11/23 01:42:48;;;;;;;;;;;-1.10;99.90;;;;;;5062026;28;20007;-77
2021/11/23 01:45:14;;;;;;;;;;;-1.10;99.90;;;;;;5052741;28;20036;-77
2021/11/23 01:47:39;;;;;;;;;;;-1.30;99.90;;;;;;5052564;28;20388;-77
2021/11/23 01:50:06;;;;;;;;;;;-1.40;99.90;;;;;;5052219;28;20014;-76
2021/11/23 01:52:32;;;;;;;;;;;-1.40;99.90;;;;;;5052520;28;19913;-77
2021/11/23 01:54:58;;;;;;;;;;;-1.50;99.90;;;;;;5052481;28;20415;-77
2021/11/23 01:57:23;;;;;;;;;;;-1.60;99.90;;;;;;5052460;28;19970;-76
2021/11/23 01:59:49;;;;;;;;;;;-1.60;99.90;;;;;;5051932;28;19909;-75
2021/11/23 02:02:15;;;;;;;;;;;-1.50;99.90;;;;;;5052154;28;19908;-77
2021/11/23 02:04:41;;;;;;;;;;;-1.50;99.90;;;;;;5052366;28;19931;-76
2021/11/23 02:07:07;;;;;;;;;;;-1.60;99.90;;;;;;5052313;28;20405;-77
2021/11/23 02:09:32;;;;;;;;;;;-1.70;99.90;;;;;;5058391;28;19917;-76
2021/11/23 02:11:58;;;;;;;;;;;-1.80;99.90;;;;;;5059380;28;19908;-76
2021/11/23 02:14:26;;;;;;;;;;;-2.00;99.90;;;;;;5071248;28;20361;-77
2021/11/23 02:16:52;;;;;;;;;;;-2.00;99.90;;;;;;5071187;28;19973;-77
2021/11/23 02:19:17;;;;;;;;;;;-1.90;99.90;;;;;;5071027;28;20365;-76
2021/11/23 02:21:43;;;;;;;;;;;-1.90;99.90;;;;;;5070745;28;20054;-76
2021/11/23 02:24:08;;;;;;;;;;;-2.00;99.90;;;;;;5071239;28;19908;-77
2021/11/23 02:26:34;;;;;;;;;;;-2.10;99.90;;;;;;5071103;28;19953;-76
2021/11/23 02:28:59;;;;;;;;;;;-2.00;99.90;;;;;;5071075;28;19909;-74
2021/11/23 02:31:25;;;;;;;;;;;-2.00;99.90;;;;;;5070492;28;19908;-76
2021/11/23 02:33:50;;;;;;;;;;;-2.20;99.90;;;;;;5070932;28;19913;-76
2021/11/23 02:36:16;;;;;;;;;;;-2.30;99.90;;;;;;5070959;28;20417;-76
2021/11/23 02:38:42;;;;;;;;;;;-2.10;99.90;;;;;;5065447;28;19919;-75
2021/11/23 02:41:09;;;;;;;;;;;-2.20;99.90;;;;;;5060112;28;19932;-74
2021/11/23 02:43:36;;;;;;;;;;;-2.20;99.90;;;;;;5053945;28;19909;-76
2021/11/23 02:46:02;;;;;;;;;;;-2.20;99.90;;;;;;5051987;28;20126;-76
2021/11/23 02:48:27;;;;;;;;;;;-2.30;99.90;;;;;;5051665;28;20205;-76
2021/11/23 02:51:07;;;;;;;;;;;-2.40;99.90;;;;;;5051423;28;19962;-76
2021/11/23 02:53:33;;;;;;;;;;;-2.30;99.90;;;;;;5051532;28;19909;-76
2021/11/23 02:56:00;;;;;;;;;;;-2.30;99.90;;;;;;5050205;28;19916;-76
2021/11/23 02:58:26;;;;;;;;;;;-2.40;99.90;;;;;;5051454;28;19909;-76
2021/11/23 03:00:51;;;;;;;;;;;-2.40;99.90;;;;;;5051017;28;19977;-76
2021/11/23 03:03:17;;;;;;;;;;;-2.50;99.90;;;;;;5051573;28;19913;-76
2021/11/23 03:05:42;;;;;;;;;;;-2.50;99.90;;;;;;5051522;28;19908;-76
2021/11/23 03:08:08;;;;;;;;;;;-2.60;99.90;;;;;;5051489;28;19909;-76
2021/11/23 03:10:33;;;;;;;;;;;-2.70;99.90;;;;;;5056142;28;19924;-77
2021/11/23 03:13:00;;;;;;;;;;;-2.70;99.90;;;;;;5060121;28;19960;-76
2021/11/23 03:15:26;;;;;;;;;;;-2.70;99.90;;;;;;5051373;28;19913;-76
2021/11/23 03:17:52;;;;;;;;;;;-2.70;99.90;;;;;;5051659;28;19919;-76
2021/11/23 03:20:19;;;;;;;;;;;-2.60;99.90;;;;;;5050869;28;19909;-76
2021/11/23 03:22:45;;;;;;;;;;;-2.60;99.90;;;;;;5051818;28;19916;-76
2021/11/23 03:25:10;;;;;;;;;;;-2.60;99.90;;;;;;5051257;28;19909;-76
2021/11/23 03:27:36;;;;;;;;;;;-2.70;99.90;;;;;;5051180;28;19944;-76
2021/11/23 03:30:04;;;;;;;;;;;-2.60;99.90;;;;;;5051093;28;19958;-76
2021/11/23 03:32:29;;;;;;;;;;;-2.70;99.90;;;;;;5055026;28;20003;-75
2021/11/23 03:34:55;;;;;;;;;;;-2.70;99.90;;;;;;5055112;28;19999;-76
2021/11/23 03:37:23;;;;;;;;;;;-2.70;99.90;;;;;;5055142;28;19912;-73
2021/11/23 03:39:49;;;;;;;;;;;-2.90;99.90;;;;;;5064038;28;19908;-74
2021/11/23 03:42:15;;;;;;;;;;;-2.70;99.90;;;;;;5056530;28;20416;-73
2021/11/23 03:44:41;;;;;;;;;;;-2.60;99.90;;;;;;5054987;28;19913;-73
2021/11/23 03:47:07;;;;;;;;;;;-2.80;99.90;;;;;;5053896;28;19948;-73
2021/11/23 03:49:34;;;;;;;;;;;-2.70;99.90;;;;;;5054816;28;19913;-74
2021/11/23 03:52:00;;;;;;;;;;;-2.80;99.90;;;;;;5054425;28;19909;-73
2021/11/23 03:54:25;;;;;;;;;;;-3.00;99.90;;;;;;5054733;28;19912;-74
2021/11/23 03:56:51;;;;;;;;;;;-3.10;99.90;;;;;;5054461;28;19915;-73
2021/11/23 03:59:17;;;;;;;;;;;-3.10;99.90;;;;;;5073878;28;19915;-73
2021/11/23 04:01:42;;;;;;;;;;;-3.00;99.90;;;;;;5073378;28;19909;-73
2021/11/23 04:04:08;;;;;;;;;;;-2.90;99.90;;;;;;5073702;28;20289;-71
2021/11/23 04:06:33;;;;;;;;;;;-3.10;99.90;;;;;;5073731;28;19908;-73
2021/11/23 04:08:59;;;;;;;;;;;-3.20;99.90;;;;;;5066001;28;20297;-74
2021/11/23 04:11:24;;;;;;;;;;;-3.20;99.90;;;;;;5064393;28;19959;-73
2021/11/23 04:13:50;;;;;;;;;;;-3.20;99.90;;;;;;5055874;28;20388;-73
2021/11/23 04:16:17;;;;;;;;;;;-3.30;99.90;;;;;;5054464;28;19909;-73
2021/11/23 04:18:43;;;;;;;;;;;-3.30;99.90;;;;;;5054271;28;19913;-72
2021/11/23 04:21:08;;;;;;;;;;;-3.20;99.90;;;;;;5053767;28;19920;-72
2021/11/23 04:23:34;;;;;;;;;;;-3.20;99.90;;;;;;5054212;28;19909;-73
2021/11/23 04:25:59;;;;;;;;;;;-3.40;99.90;;;;;;5054021;28;19909;-73
2021/11/23 04:28:25;;;;;;;;;;;-3.30;99.90;;;;;;5052854;28;19928;-72
2021/11/23 04:30:50;;;;;;;;;;;-3.50;99.90;;;;;;5053643;28;19916;-73
2021/11/23 04:33:16;;;;;;;;;;;-3.40;99.90;;;;;;5054038;28;19909;-73
2021/11/23 04:35:42;;;;;;;;;;;-3.20;99.90;;;;;;5053913;28;19963;-74
2021/11/23 04:38:08;;;;;;;;;;;-3.20;99.90;;;;;;5053821;28;19912;-74
2021/11/23 04:40:33;;;;;;;;;;;-3.20;99.90;;;;;;5059152;28;19909;-74
2021/11/23 04:42:59;;;;;;;;;;;-3.30;99.90;;;;;;5062963;28;19915;-75
2021/11/23 04:45:24;;;;;;;;;;;-3.30;99.90;;;;;;5053806;28;19909;-74
2021/11/23 04:47:50;;;;;;;;;;;-3.50;99.90;;;;;;5054091;28;19909;-74
2021/11/23 04:50:15;;;;;;;;;;;-3.50;99.90;;;;;;5053256;28;19978;-74
2021/11/23 04:52:41;;;;;;;;;;;-3.50;99.90;;;;;;5053613;28;20360;-74
2021/11/23 04:55:07;;;;;;;;;;;-3.50;99.90;;;;;;5053472;28;20286;-74
2021/11/23 04:57:33;;;;;;;;;;;-3.60;99.90;;;;;;5053598;28;20369;-74
2021/11/23 05:00:00;;;;;;;;;;;-3.50;99.90;;;;;;5053111;28;20004;-74
2021/11/23 05:02:25;;;;;;;;;;;-3.60;99.90;;;;;;5053455;28;20189;-74
2021/11/23 05:04:51;;;;;;;;;;;-3.60;99.90;;;;;;5053552;28;20208;-74
2021/11/23 05:07:16;;;;;;;;;;;-3.70;99.90;;;;;;5053446;28;19909;-74
2021/11/23 05:09:42;;;;;;;;;;;-3.70;99.90;;;;;;5062365;28;19917;-74
2021/11/23 05:12:07;;;;;;;;;;;-3.50;99.90;;;;;;5055251;28;19952;-74
2021/11/23 05:14:33;;;;;;;;;;;-3.50;99.90;;;;;;5053170;28;19919;-74
2021/11/23 05:16:58;;;;;;;;;;;-3.20;99.90;;;;;;5053098;28;20354;-74
2021/11/23 05:19:24;;;;;;;;;;;-3.20;99.90;;;;;;5053399;28;19909;-73
2021/11/23 05:21:49;;;;;;;;;;;-3.40;99.90;;;;;;5052621;28;19909;-74
2021/11/23 05:24:15;;;;;;;;;;;-3.40;99.90;;;;;;5052851;28;19912;-74
2021/11/23 05:26:41;;;;;;;;;;;-3.40;99.90;;;;;;5052537;28;19909;-74
2021/11/23 05:29:06;;;;;;;;;;;-3.40;99.90;;;;;;5052891;28;19908;-74
2021/11/23 05:31:32;;;;;;;;;;;-3.50;99.90;;;;;;5052374;28;19992;-74
2021/11/23 05:33:58;;;;;;;;;;;-3.50;99.90;;;;;;5051509;28;20354;-74
2021/11/23 05:36:23;;;;;;;;;;;-3.50;99.90;;;;;;5052628;28;19909;-74
2021/11/23 05:38:50;;;;;;;;;;;-3.70;99.90;;;;;;5053082;28;19915;-74
2021/11/23 05:41:15;;;;;;;;;;;-3.60;99.90;;;;;;5062434;28;19913;-74
2021/11/23 05:43:41;;;;;;;;;;;-3.70;99.90;;;;;;5055501;28;19908;-74
2021/11/23 05:46:06;;;;;;;;;;;-3.80;99.90;;;;;;5052493;28;19916;-74
2021/11/23 05:48:32;;;;;;;;;;;-3.70;99.90;;;;;;5052607;28;20146;-74
2021/11/23 05:51:03;;;;;;;;;;;-3.80;99.90;;;;;;5051908;28;19916;-74
2021/11/23 05:53:33;;;;;;;;;;;-3.80;99.90;;;;;;5050503;28;19963;-74
2021/11/23 05:55:58;;;;;;;;;;;-3.70;99.90;;;;;;5052265;28;19913;-74
2021/11/23 05:58:24;;;;;;;;;;;-3.60;99.90;;;;;;5052423;28;19915;-74
2021/11/23 06:00:50;;;;;;;;;;;-3.70;99.90;;;;;;5052010;28;19909;-73
2021/11/23 06:03:16;;;;;;;;;;;-3.70;99.90;;;;;;5052320;28;19913;-74
2021/11/23 06:05:41;;;;;;;;;;;-3.60;99.90;;;;;;5052208;28;19996;-73
2021/11/23 06:08:07;;;;;;;;;;;-3.70;99.90;;;;;;5052144;28;19916;-74
2021/11/23 06:10:32;;;;;;;;;;;-3.60;99.90;;;;;;5055907;28;20301;-74
2021/11/23 06:12:59;;;;;;;;;;;-3.60;99.90;;;;;;5057428;28;19909;-74
2021/11/23 06:15:27;;;;;;;;;;;-3.70;99.90;;;;;;5050863;28;19920;-74
2021/11/23 06:18:00;;;;;;;;;;;-3.70;99.90;;;;;;5050840;28;20293;-73
2021/11/23 06:20:26;;;;;;;;;;;-3.90;99.90;;;;;;5051367;28;19908;-73
2021/11/23 06:22:53;;;;;;;;;;;-3.80;99.90;;;;;;5052128;28;19916;-73
2021/11/23 06:25:18;;;;;;;;;;;-3.80;99.90;;;;;;5051950;28;19912;-74
2021/11/23 06:27:44;;;;;;;;;;;-3.90;99.90;;;;;;5051928;28;19909;-73
2021/11/23 06:30:10;;;;;;;;;;;-3.90;99.90;;;;;;5051459;28;19909;-74
2021/11/23 06:32:35;;;;;;;;;;;-3.90;99.90;;;;;;5051811;28;19909;-74
2021/11/23 06:35:01;;;;;;;;;;;-3.90;99.90;;;;;;5051587;28;19966;-74
2021/11/23 06:37:26;;;;;;;;;;;-3.90;99.90;;;;;;5051756;28;19909;-73
2021/11/23 06:39:52;;;;;;;;;;;-4.00;99.90;;;;;;5065316;28;20262;-74
2021/11/23 06:42:17;;;;;;;;;;;-4.00;99.90;;;;;;5053915;28;19916;-74
2021/11/23 06:44:43;;;;;;;;;;;-4.00;99.90;;;;;;5051561;28;19909;-74
2021/11/23 06:47:08;;;;;;;;;;;-3.90;99.90;;;;;;5051695;28;19970;-73
2021/11/23 06:49:34;;;;;;;;;;;-4.00;99.90;;;;;;5051742;28;20600;-73
2021/11/23 06:51:59;;;;;;;;;;;-4.20;99.90;;;;;;5070965;28;19913;-74
2021/11/23 06:54:25;;;;;;;;;;;-4.10;99.90;;;;;;5071008;28;19916;-74
2021/11/23 06:56:55;;;;;;;;;;;-4.10;99.90;;;;;;5069682;28;20254;-74
2021/11/23 06:59:21;;;;;;;;;;;-4.10;99.90;;;;;;5070810;28;20357;-74
2021/11/23 07:01:46;;;;;;;;;;;-4.10;99.90;;;;;;5070964;28;19916;-74
2021/11/23 07:04:12;;;;;;;;;;;-4.20;99.90;;;;;;5071141;28;19913;-74
2021/11/23 07:06:38;;;;;;;;;;;-4.20;99.90;;;;;;5074046;28;19922;-74
2021/11/23 07:09:03;;;;;;;;;;;-4.20;99.90;;;;;;5067587;28;19908;-72
2021/11/23 07:11:29;;;;;;;;;;;-4.10;99.90;;;;;;5067801;28;20278;-74
2021/11/23 07:13:54;;;;;;;;;;;-4.00;99.90;;;;;;5057464;28;19982;-74
2021/11/23 07:16:20;;;;;;;;;;;-4.00;99.90;;;;;;5055660;28;19909;-74
2021/11/23 07:18:45;;;;;;;;;;;-4.00;99.90;;;;;;5055708;28;20000;-72
2021/11/23 07:21:11;;;;;;;;;;;-4.00;99.90;;;;;;5055191;28;20438;-74
2021/11/23 07:23:36;;;;;;;;;;;-3.90;99.90;;;;;;5054256;28;20289;-74
2021/11/23 07:26:02;;;;;;;;;;;-3.80;99.90;;;;;;5056436;28;20003;-74
2021/11/23 07:28:27;;;;;;;;;;;-3.80;99.90;;;;;;5055949;28;20309;-75
2021/11/23 07:30:55;;;;;;;;;;;-3.80;99.90;;;;;;5055395;28;19909;-75
2021/11/23 07:33:21;;;;;;;;;;;-3.60;99.90;;;;;;5054211;28;19954;-75
2021/11/23 07:35:47;;;;;;;;;;;-3.60;99.90;;;;;;5054307;28;19920;-75
2021/11/23 07:38:12;;;;;;;;;;;-3.60;99.90;;;;;;5054285;28;19916;-74
2021/11/23 07:40:38;;;;;;;;;;;-3.50;99.90;;;;;;5064201;28;19916;-75
2021/11/23 07:43:04;;;;;;;;;;;-3.40;99.90;;;;;;5058785;28;19939;-75
2021/11/23 07:45:29;;;;;;;;;;;-3.30;99.90;;;;;;5060233;28;19912;-75
2021/11/23 07:47:55;;;;;;;;;;;-3.20;99.90;;;;;;5059241;28;19908;-75
2021/11/23 07:50:20;;;;;;;;;;;-3.00;99.90;;;;;;5059031;28;20353;-74
2021/11/23 07:52:46;;;;;;;;;;;-2.90;99.90;;;;;;5058323;28;20470;-75
2021/11/23 07:55:11;;;;;;;;;;;-3.00;99.90;;;;;;5056531;28;19913;-75
2021/11/23 07:57:37;;;;;;;;;;;-3.00;99.90;;;;;;5056844;28;20003;-75
2021/11/23 08:00:05;;;;;;;;;;;-2.70;99.90;;;;;;5062622;28;19916;-75
2021/11/23 08:02:30;;;;;;;;;;;-2.70;99.90;;;;;;5068736;28;20531;-75
2021/11/23 08:04:56;;;;;;;;;;;-2.90;99.90;;;;;;5056504;28;19915;-75
2021/11/23 08:07:22;;;;;;;;;;;-2.90;99.90;;;;;;5055380;28;19913;-75
2021/11/23 08:09:47;;;;;;;;;;;-2.00;99.90;;;;;;5062855;28;19923;-75
2021/11/23 08:12:13;;;;;;;;;;;-1.60;99.90;;;;;;5060591;28;19913;-74
2021/11/23 08:14:38;;;;;;;;;;;-1.20;99.90;;;;;;5055100;28;19913;-75
2021/11/23 08:17:04;;;;;;;;;;;-1.20;99.90;;;;;;5053754;28;19916;-75
2021/11/23 08:19:29;;;;;;;;;;;-1.50;99.90;;;;;;5053318;28;19913;-75
2021/11/23 08:21:55;;;;;;;;;;;-1.20;99.90;;;;;;5055975;28;19908;-76
2021/11/23 08:24:20;;;;;;;;;;;-0.80;99.90;;;;;;5056101;28;20328;-76
2021/11/23 08:26:46;;;;;;;;;;;-0.40;99.90;;;;;;5061885;28;19923;-76
2021/11/23 08:29:11;;;;;;;;;;;-0.30;99.90;;;;;;5062910;28;19948;-76
2021/11/23 08:31:37;;;;;;;;;;;0.10;99.90;;;;;;5069411;28;19954;-74
2021/11/23 08:34:04;;;;;;;;;;;0.40;99.90;;;;;;5072098;28;19913;-74
2021/11/23 08:36:31;;;;;;;;;;;0.40;99.90;;;;;;5073730;28;20377;-75
2021/11/23 08:38:56;;;;;;;;;;;1.20;99.90;;;;;;5069923;28;20325;-74
2021/11/23 08:41:22;;;;;;;;;;;2.90;99.90;;;;;;5079534;28;19959;-78
2021/11/23 08:43:47;;;;;;;;;;;3.20;99.90;;;;;;5072462;28;19961;-73
2021/11/23 08:46:13;;;;;;;;;;;3.50;99.90;;;;;;5076414;28;20265;-75
2021/11/23 08:48:38;;;;;;;;;;;4.80;99.90;;;;;;5066161;28;20074;-75
2021/11/23 08:51:06;;;;;;;;;;;4.80;99.90;;;;;;5058269;28;19913;-77
2021/11/23 08:53:32;;;;;;;;;;;4.70;99.90;;;;;;5067859;28;19916;-75
2021/11/23 08:55:57;;;;;;;;;;;5.90;99.90;;;;;;5052499;28;20417;-75
2021/11/23 08:58:23;;;;;;;;;;;6.50;99.90;;;;;;5063482;28;20285;-75
2021/11/23 09:00:48;;;;;;;;;;;5.80;99.90;;;;;;5061473;28;19909;-78
2021/11/23 09:03:14;;;;;;;;;;;6.10;99.90;;;;;;5058486;28;19908;-75
2021/11/23 09:05:40;;;;;;;;;;;7.20;99.90;;;;;;5064039;28;19999;-74
2021/11/23 09:08:06;;;;;;;;;;;6.90;99.90;;;;;;5071243;28;19998;-76
2021/11/23 09:10:35;;;;;;;;;;;8.10;99.90;;;;;;5070803;28;19920;-76
2021/11/23 09:13:01;;;;;;;;;;;9.10;99.90;;;;;;5062469;28;19995;-75
2021/11/23 09:15:27;;;;;;;;;;;8.30;99.30;;;;;;5071756;28;20004;-75
2021/11/23 09:17:55;;;;;;;;;;;8.00;99.90;;;;;;5071610;28;20301;-77
2021/11/23 09:20:21;;;;;;;;;;;9.00;99.80;;;;;;5062030;28;20141;-75
2021/11/23 09:22:46;;;;;;;;;;;10.00;97.00;;;;;;5063807;28;20395;-75
2021/11/23 09:25:13;;;;;;;;;;;10.00;96.40;;;;;;5060552;28;20460;-75
2021/11/23 09:27:39;;;;;;;;;;;9.40;96.90;;;;;;5061298;28;20057;-75
2021/11/23 09:30:06;;;;;;;;;;;10.10;95.40;;;;;;5063552;28;19916;-75
2021/11/23 09:32:31;;;;;;;;;;;9.70;95.00;;;;;;5052324;28;20340;-75
2021/11/23 09:34:57;;;;;;;;;;;8.70;96.30;;;;;;5055679;28;19913;-77
2021/11/23 09:37:23;;;;;;;;;;;9.10;96.70;;;;;;5052174;28;19956;-75
2021/11/23 09:39:48;;;;;;;;;;;9.40;95.60;;;;;;5067186;28;19978;-74
2021/11/23 09:42:15;;;;;;;;;;;10.00;95.10;;;;;;5046164;28;19913;-75
2021/11/23 09:44:43;;;;;;;;;;;10.00;93.50;;;;;;5058773;28;19992;-75
2021/11/23 09:47:09;;;;;;;;;;;9.60;95.00;;;;;;5070660;28;19915;-75
2021/11/23 09:49:35;;;;;;;;;;;10.20;94.60;;;;;;5067445;28;19913;-76
2021/11/23 09:52:00;;;;;;;;;;;11.30;93.00;;;;;;5054590;28;20309;-76
2021/11/23 09:54:25;;;;;;;;;;;11.70;91.70;;;;;;5068319;28;19919;-77
2021/11/23 09:56:51;;;;;;;;;;;11.20;91.60;;;;;;5061308;28;20400;-75
2021/11/23 09:59:17;;;;;;;;;;;11.40;92.30;;;;;;5064594;28;19908;-75
2021/11/23 10:01:51;;;;;;;;;;;12.00;90.50;;;;;;5061458;28;20030;-76
2021/11/23 10:04:18;;;;;;;;;;;11.80;91.60;;;;;;5058715;28;20309;-75
2021/11/23 10:06:53;;;;;;;;;;;10.60;90.90;;;;;;5054299;28;19913;-75
2021/11/23 10:09:49;;;;;;;;;;;11.30;92.00;;;;;;5058590;28;20570;-77
2021/11/23 10:12:14;;;;;;;;;;;10.40;91.10;;;;;;5066818;28;19917;-76
2021/11/23 10:15:02;;;;;;;;;;;10.90;92.20;;;;;;5053463;28;20221;-75
2021/11/23 10:17:28;;;;;;;;;;;10.20;92.40;;;;;;5058739;28;19963;-75
2021/11/23 10:19:53;;;;;;;;;;;10.10;92.40;;;;;;5053549;28;19917;-75
2021/11/23 10:22:35;;;;;;;;;;;9.60;94.50;;;;;;5053999;28;20514;-78
2021/11/23 10:25:03;;;;;;;;;;;8.80;95.00;;;;;;5066243;28;20285;-78
2021/11/23 10:27:28;;;;;;;;;;;8.10;95.60;;;;;;5059531;28;19915;-75
2021/11/23 10:29:54;;;;;;;;;;;8.00;96.10;;;;;;5066901;28;19908;-75
2021/11/23 10:32:20;;;;;;;;;;;8.30;95.60;;;;;;5069015;28;19912;-76
2021/11/23 10:34:45;;;;;;;;;;;6.70;98.00;;;;;;5055135;28;19919;-75
2021/11/23 10:37:30;;;;;;;;;;;5.80;99.70;;;;;;5051333;28;20653;-79
2021/11/23 10:40:08;;;;;;;;;;;5.30;99.90;;;;;;5062836;28;19908;-75
2021/11/23 10:42:34;;;;;;;;;;;4.90;99.90;;;;;;5060229;28;19972;-75
2021/11/23 10:45:05;;;;;;;;;;;4.20;99.90;;;;;;5053323;28;19963;-75
2021/11/23 10:47:34;;;;;;;;;;;4.00;99.90;;;;;;5054992;28;19916;-76
2021/11/23 10:50:05;;;;;;;;;;;4.80;99.90;;;;;;5055363;28;19908;-77
2021/11/23 10:52:36;;;;;;;;;;;4.30;99.90;;;;;;5061245;28;20342;-75
2021/11/23 10:55:22;;;;;;;;;;;3.90;99.90;;;;;;5052584;28;19917;-75
2021/11/23 10:57:49;;;;;;;;;;;3.90;99.90;;;;;;5062493;28;19944;-75
2021/11/23 11:00:15;;;;;;;;;;;3.50;99.90;;;;;;5054274;28;19920;-75
2021/11/23 11:02:41;;;;;;;;;;;3.50;99.90;;;;;;5066751;28;19975;-75
2021/11/23 11:05:08;;;;;;;;;;;3.30;99.90;;;;;;5059284;28;19995;-74
2021/11/23 11:07:34;;;;;;;;;;;3.00;99.90;;;;;;5058212;28;19979;-75
2021/11/23 11:09:59;;;;;;;;;;;3.10;99.90;;;;;;5063183;28;19925;-75
2021/11/23 11:12:25;;;;;;;;;;;3.00;99.90;;;;;;5061459;28;20365;-75
2021/11/23 11:14:52;;;;;;;;;;;3.00;99.90;;;;;;5058148;28;19923;-75
2021/11/23 11:17:18;;;;;;;;;;;3.00;99.90;;;;;;5060299;28;19917;-75
2021/11/23 11:19:46;;;;;;;;;;;2.80;99.90;;;;;;5058244;28;20333;-74
2021/11/23 11:22:13;;;;;;;;;;;3.00;99.90;;;;;;5063509;28;20284;-74
2021/11/23 11:24:43;;;;;;;;;;;2.90;99.90;;;;;;5051408;28;20007;-75
2021/11/23 11:27:27;;;;;;;;;;;2.90;99.90;;;;;;5057707;28;19909;-77
2021/11/23 11:29:52;;;;;;;;;;;2.90;99.90;;;;;;5054506;28;19949;-75
2021/11/23 11:32:34;;;;;;;;;;;2.90;99.90;;;;;;5051194;28;20206;-74
2021/11/23 11:35:18;;;;;;;;;;;2.90;99.90;;;;;;5051006;28;19917;-76
2021/11/23 11:37:43;;;;;;;;;;;2.80;99.90;;;;;;5064025;28;19908;-75
2021/11/23 11:40:18;;;;;;;;;;;2.80;99.90;;;;;;5059420;28;20349;-76
2021/11/23 11:42:44;;;;;;;;;;;2.80;99.90;;;;;;5055576;28;19909;-74
2021/11/23 11:45:11;;;;;;;;;;;2.90;99.90;;;;;;5051135;28;19916;-75
2021/11/23 11:47:37;;;;;;;;;;;2.90;99.90;;;;;;5050968;28;19962;-74
2021/11/23 11:50:09;;;;;;;;;;;2.90;99.90;;;;;;5063585;28;19912;-74
2021/11/23 11:53:00;;;;;;;;;;;3.00;99.90;;;;;;5068324;28;20400;-78
2021/11/23 11:55:29;;;;;;;;;;;3.00;99.90;;;;;;5074368;28;20284;-75
2021/11/23 11:57:55;;;;;;;;;;;3.10;99.90;;;;;;5057211;28;19944;-74
2021/11/23 12:00:45;;;;;;;;;;;2.90;99.90;;;;;;5055735;28;19952;-74
2021/11/23 12:03:14;;;;;;;;;;;3.00;99.90;;;;;;5057766;28;19962;-76
2021/11/23 12:05:49;;;;;;;;;;;3.10;99.90;;;;;;5060691;28;19992;-74
2021/11/23 12:08:21;;;;;;;;;;;3.10;99.90;;;;;;5055956;28;19915;-75
2021/11/23 12:10:46;;;;;;;;;;;3.00;99.90;;;;;;5069363;28;19966;-74
2021/11/23 12:13:24;;;;;;;;;;;3.00;99.90;;;;;;5056519;28;19913;-76
2021/11/23 12:15:49;;;;;;;;;;;3.00;99.90;;;;;;5055716;28;19916;-74
2021/11/23 12:18:45;;;;;;;;;;;3.00;99.90;;;;;;5060948;28;19909;-74
2021/11/23 12:21:12;;;;;;;;;;;3.00;99.90;;;;;;5063361;28;20284;-75
2021/11/23 12:23:40;;;;;;;;;;;3.10;99.90;;;;;;5071619;28;20403;-78
2021/11/23 12:26:07;;;;;;;;;;;3.10;99.90;;;;;;5058071;28;19909;-76
2021/11/23 12:28:33;;;;;;;;;;;3.10;99.90;;;;;;5070669;28;19908;-74
2021/11/23 12:31:04;;;;;;;;;;;3.10;99.90;;;;;;5053913;28;19915;-74
2021/11/23 12:33:30;;;;;;;;;;;3.10;99.90;;;;;;5053238;28;19971;-74
2021/11/23 12:35:57;;;;;;;;;;;3.20;99.90;;;;;;5059976;28;20007;-74
2021/11/23 12:38:24;;;;;;;;;;;3.20;99.90;;;;;;5054373;28;19913;-75
2021/11/23 12:40:50;;;;;;;;;;;3.20;99.90;;;;;;5063706;28;20354;-74
2021/11/23 12:43:16;;;;;;;;;;;3.20;99.90;;;;;;5056712;28;19909;-74
2021/11/23 12:45:45;;;;;;;;;;;3.20;99.90;;;;;;5073224;28;20461;-74
2021/11/23 12:48:12;;;;;;;;;;;3.30;99.90;;;;;;5053582;28;19913;-74
2021/11/23 12:50:39;;;;;;;;;;;3.20;99.90;;;;;;5053440;28;19909;-74
2021/11/23 12:53:07;;;;;;;;;;;3.20;99.90;;;;;;5072983;28;19908;-75
2021/11/23 12:55:33;;;;;;;;;;;3.30;99.90;;;;;;5073166;28;20411;-74
2021/11/23 12:58:00;;;;;;;;;;;3.20;99.90;;;;;;5072542;28;19908;-74
2021/11/23 13:00:26;;;;;;;;;;;3.20;99.90;;;;;;5052267;28;19944;-77
2021/11/23 13:02:53;;;;;;;;;;;3.20;99.90;;;;;;5065269;28;20343;-75
2021/11/23 13:05:19;;;;;;;;;;;3.20;99.90;;;;;;5055884;28;19962;-75
2021/11/23 13:07:50;;;;;;;;;;;3.20;99.90;;;;;;5053110;28;20225;-74
2021/11/23 13:10:17;;;;;;;;;;;3.20;99.90;;;;;;5058752;28;19917;-75
2021/11/23 13:12:47;;;;;;;;;;;3.30;99.90;;;;;;5059295;28;19908;-75
2021/11/23 13:15:15;;;;;;;;;;;3.30;99.90;;;;;;5055867;28;19924;-74
2021/11/23 13:17:42;;;;;;;;;;;3.30;99.90;;;;;;5056497;28;19999;-75
2021/11/23 13:20:09;;;;;;;;;;;3.20;99.90;;;;;;5051425;28;19909;-74
2021/11/23 13:22:38;;;;;;;;;;;3.30;99.90;;;;;;5053164;28;19909;-74
2021/11/23 13:25:04;;;;;;;;;;;3.40;99.90;;;;;;5052951;28;20374;-75
2021/11/23 13:27:30;;;;;;;;;;;3.40;99.90;;;;;;5055745;28;19916;-78
2021/11/23 13:29:58;;;;;;;;;;;3.40;99.90;;;;;;5063237;28;19919;-77
2021/11/23 13:32:24;;;;;;;;;;;3.30;99.90;;;;;;5058085;28;19916;-77
2021/11/23 13:34:51;;;;;;;;;;;3.30;99.90;;;;;;5052744;28;19913;-75
2021/11/23 13:37:16;;;;;;;;;;;3.30;99.90;;;;;;5059198;28;19909;-76
2021/11/23 13:39:42;;;;;;;;;;;3.30;99.90;;;;;;5066605;28;19912;-74
2021/11/23 13:42:18;;;;;;;;;;;3.30;99.90;;;;;;5059455;28;19913;-74
2021/11/23 13:44:44;;;;;;;;;;;3.30;99.90;;;;;;5052330;28;20369;-74
2021/11/23 13:47:17;;;;;;;;;;;3.20;99.90;;;;;;5052477;28;19909;-74
2021/11/23 13:49:43;;;;;;;;;;;3.30;99.90;;;;;;5054065;28;19913;-76
2021/11/23 13:52:14;;;;;;;;;;;3.40;99.90;;;;;;5064964;28;19909;-74
2021/11/23 13:54:43;;;;;;;;;;;3.20;99.90;;;;;;5054618;28;19913;-75
2021/11/23 13:57:13;;;;;;;;;;;3.10;99.90;;;;;;5052387;28;19931;-74
2021/11/23 13:59:38;;;;;;;;;;;3.00;99.90;;;;;;5053961;28;19909;-76
2021/11/23 14:02:06;;;;;;;;;;;3.10;99.90;;;;;;5061189;28;19915;-74
2021/11/23 14:04:33;;;;;;;;;;;3.20;99.90;;;;;;5054722;28;19908;-78
2021/11/23 14:07:01;;;;;;;;;;;3.10;99.90;;;;;;5057802;28;19944;-74
2021/11/23 14:09:27;;;;;;;;;;;3.10;99.90;;;;;;5057587;28;19916;-77
2021/11/23 14:11:59;;;;;;;;;;;3.00;99.90;;;;;;5066947;28;19908;-78
2021/11/23 14:14:25;;;;;;;;;;;3.10;99.90;;;;;;5052721;28;20322;-75
2021/11/23 14:16:55;;;;;;;;;;;3.00;99.90;;;;;;5052376;28;20249;-74
2021/11/23 14:19:21;;;;;;;;;;;2.90;99.90;;;;;;5052745;28;19916;-79